Himanka, Suomi

22. huhtikuuta 2018 klo 11:44 (EEST) (GMT +0300)
Himanka, Kunnottomanperukka | | Change Station

Kork 10 ft 64.12 °N, 23.59 °E | Updated 51 seconds ago

Pilvistä
Pilvistä
33.8 °F
Tuntuu kuin 16 °F
N
58.0
Tuuli Suunnaltaan vaihteleva Tuuli ilmansuunnasta Pohjoinen
Gusts 58.0 mph

Tänään
Korkea -- | Matala -- °F
--% Sateen mahd.
Eilen
Korkea -- | Matala -- °F
Precip. -- tuumaa
Ilmanpaine 29.92 tuumaa
Näkyvyys 6.2 mailia
Pilviä Pilvistä 2200 ft
Tuulen hyytävyys 16 °F
Kastepiste -17 °F
Ilmankosteus 10%
Sademäärä 0.00 tuumaa
Lumensyvyys Ei saatavilla
5:30 AM 9:19 PM
Kasvava sirppi, 44% visible
METAR EFKK 220820Z AUTO 05003KT 9999 BKN022 03/M01 Q1013
Ilmanpaine 29.92 tuumaa
Näkyvyys 6.2 mailia
Pilviä Pilvistä 2200 ft
Tuulen hyytävyys 16 °F
Kastepiste -17 °F
Ilmankosteus 10%
Sademäärä 0.00 tuumaa
Lumensyvyys Ei saatavilla
5:30 AM 9:19 PM
Kasvava sirppi, 44% visible
METAR EFKK 220820Z AUTO 05003KT 9999 BKN022 03/M01 Q1013

Get Severe Weather Alerts

Thanks for signing up!

Be on the lookout for a verification email in your inbox.

You'll start receiving the daily forecast at 6 AM.

×

10-Day Weather Forecast

×

Almanac

Tähtitiede

Apr. 22, 2018 Nousuaika Laskuaika
Valoisa aika
Porvarillinen hämärä
Nauttinen hämärä
Astronominen hämärä
Kuu
Näkyvän valon pituus
Päivän pituus
Tomorrow will be .
, % of the Moon is Illuminated

Tämän päivän ennätykset

Country Highs Country Lows

Community

WunderPhotos

Category 6

Welcome to Category 6. This is the collective home for Weather Underground's featured writeups by Dr. Jeff Masters (right), Bob Henson (left), Chris Burt, and other regular contributors.

Nearby

Ilmanlaatu

  Ilmanlaatu AQ Index Pollutant
Not available.

Lumensyvyys

Station Depth Korkeus

Maanjäristysaktiivisuus

Paikkakunta Distance Mag. Time & Date
Minimum magnitude displayed is 2.5.

Coastal Water Temperatures

Paikka Lämpötila

Stations

Lähimmät sääasemat

Aseman sijainti Lämpötila Tuulen hyytävyys Kastepiste Ilmankosteus Tuuli Precip. Kork Päivitetty Tyyppi